Time;durP1;ratioP1;P1;durP2;ratioP2;P2;SDS_P1;SDS_P2;PMS_P1;PMS_P2;Temp;Humidity;BMP_temperature;BMP_pressure;BME280_temperature;BME280_humidity;BME280_pressure;Samples;Min_cycle;Max_cycle;Signal;HPM_P1;HPM_P2
2021/05/27 00:00:33;;;;;;;1.20;1.20;;;;;;;8.84;95.30;96771.13;5098500;28;20160;-64
2021/05/27 00:03:00;;;;;;;1.40;1.40;;;;;;;8.83;95.53;96774.72;5091494;28;20169;-64
2021/05/27 00:05:25;;;;;;;1.20;1.20;;;;;;;8.86;95.07;96776.94;5108865;28;20335;-63
2021/05/27 00:07:52;;;;;;;1.53;1.43;;;;;;;8.82;95.72;96781.78;5091162;28;20742;-63
2021/05/27 00:10:21;;;;;;;1.20;1.20;;;;;;;8.90;94.55;96786.72;5106010;28;20261;-65
2021/05/27 00:12:46;;;;;;;1.40;1.40;;;;;;;8.76;95.40;96780.00;5099852;28;20169;-64
2021/05/27 00:15:13;;;;;;;1.33;1.23;;;;;;;8.86;95.10;96780.31;5093797;28;20230;-62
2021/05/27 00:17:40;;;;;;;1.43;1.30;;;;;;;8.83;95.61;96787.81;5104795;28;20200;-62
2021/05/27 00:20:07;;;;;;;1.73;1.63;;;;;;;8.85;95.55;96785.78;5104792;28;20164;-64
2021/05/27 00:22:33;;;;;;;1.47;1.37;;;;;;;8.84;95.33;96771.91;5101976;28;20192;-63
2021/05/27 00:24:58;;;;;;;1.27;1.27;;;;;;;8.86;95.22;96774.31;5101247;28;20574;-62
2021/05/27 00:27:24;;;;;;;1.40;1.40;;;;;;;8.85;94.94;96780.56;5093509;28;20196;-62
2021/05/27 00:29:50;;;;;;;1.27;1.27;;;;;;;8.77;94.90;96781.63;5103752;28;20330;-62
2021/05/27 00:32:18;;;;;;;1.27;1.27;;;;;;;8.79;95.66;96777.00;5097923;28;20614;-62
2021/05/27 00:34:43;;;;;;;1.50;1.40;;;;;;;8.81;94.73;96782.78;5110819;28;20285;-62
2021/05/27 00:37:09;;;;;;;1.50;1.43;;;;;;;8.69;95.69;96779.28;5096601;28;20290;-62
2021/05/27 00:39:34;;;;;;;1.40;1.40;;;;;;;8.73;95.49;96785.69;5104133;28;20191;-62
2021/05/27 00:42:00;;;;;;;1.30;1.30;;;;;;;8.66;96.21;96782.31;5100732;28;20196;-62
2021/05/27 00:44:28;;;;;;;1.30;1.30;;;;;;;8.87;94.55;96783.72;5109966;28;20168;-65
2021/05/27 00:46:55;;;;;;;1.60;1.50;;;;;;;8.75;94.92;96784.44;5102505;28;20199;-62
2021/05/27 00:49:21;;;;;;;1.30;1.30;;;;;;;8.77;94.71;96779.81;5105013;28;20177;-62
2021/05/27 00:51:47;;;;;;;1.97;1.30;;;;;;;8.81;94.70;96787.22;5105298;28;20267;-62
2021/05/27 00:54:13;;;;;;;1.67;1.57;;;;;;;8.77;94.37;96782.41;5112922;28;20172;-62
2021/05/27 00:56:40;;;;;;;1.27;1.20;;;;;;;8.72;94.44;96779.66;5106506;28;20200;-62
2021/05/27 00:59:06;;;;;;;1.63;1.57;;;;;;;8.68;94.97;96777.69;5106038;28;20309;-62
2021/05/27 01:01:33;;;;;;;1.27;1.27;;;;;;;8.73;94.89;96786.50;5102702;28;20218;-62
2021/05/27 01:03:59;;;;;;;1.40;1.30;;;;;;;8.66;94.98;96793.56;5100506;28;20668;-62
2021/05/27 01:06:24;;;;;;;1.40;1.40;;;;;;;8.84;94.12;96784.19;5098171;28;20192;-62
2021/05/27 01:08:50;;;;;;;1.30;1.30;;;;;;;8.89;93.15;96792.97;5111944;28;20180;-62
2021/05/27 01:11:18;;;;;;;1.90;1.40;;;;;;;8.85;93.84;96794.44;5104918;28;20613;-62
2021/05/27 01:13:44;;;;;;;1.40;1.40;;;;;;;8.78;93.50;96793.69;5113677;28;20247;-61
2021/05/27 01:16:18;;;;;;;1.50;1.40;;;;;;;8.67;94.60;96791.75;5108589;28;20207;-62
2021/05/27 01:18:43;;;;;;;1.50;1.40;;;;;;;8.69;94.44;96798.34;5101982;28;20173;-62
2021/05/27 01:21:09;;;;;;;1.60;1.50;;;;;;;8.58;95.04;96795.66;5108368;28;20515;-62
2021/05/27 01:23:35;;;;;;;1.20;1.20;;;;;;;8.76;93.66;96791.28;5098211;28;20164;-62
2021/05/27 01:26:03;;;;;;;1.60;1.60;;;;;;;8.67;94.21;96787.34;5105705;28;20207;-62
2021/05/27 01:28:32;;;;;;;1.60;1.50;;;;;;;8.64;94.29;96792.19;5112039;28;20230;-62
2021/05/27 01:30:58;;;;;;;1.70;1.60;;;;;;;8.58;94.49;96790.44;5104813;28;20160;-62
2021/05/27 01:33:24;;;;;;;1.50;1.40;;;;;;;8.61;93.96;96792.63;5095075;28;20169;-62
2021/05/27 01:35:50;;;;;;;1.87;1.50;;;;;;;8.63;94.52;96801.06;5103913;28;20172;-62
2021/05/27 01:38:18;;;;;;;1.40;1.40;;;;;;;8.48;95.56;96798.75;5105649;28;20211;-62
2021/05/27 01:40:44;;;;;;;1.33;1.30;;;;;;;8.64;94.07;96800.00;5102955;28;20192;-62
2021/05/27 01:43:10;;;;;;;1.40;1.23;;;;;;;8.53;94.98;96800.69;5108529;28;20172;-62
2021/05/27 01:45:37;;;;;;;1.40;1.30;;;;;;;8.66;93.92;96800.59;5078876;28;20180;-65
2021/05/27 01:48:03;;;;;;;1.70;1.60;;;;;;;8.69;93.30;96808.03;5100877;28;20199;-62
2021/05/27 01:50:30;;;;;;;2.00;1.57;;;;;;;8.72;93.53;96805.78;5112300;28;20245;-62
2021/05/27 01:53:04;;;;;;;1.30;1.30;;;;;;;8.67;93.64;96797.00;5099936;28;20259;-62
2021/05/27 01:55:30;;;;;;;1.50;1.50;;;;;;;8.62;93.55;96809.91;5077867;28;20666;-62
2021/05/27 01:57:57;;;;;;;1.67;1.50;;;;;;;8.65;94.21;96805.03;5103969;28;20240;-62
2021/05/27 02:00:23;;;;;;;1.30;1.30;;;;;;;8.60;94.10;96807.50;5112290;28;20170;-64
2021/05/27 02:02:49;;;;;;;1.83;1.73;;;;;;;8.69;93.71;96800.97;5113216;28;20168;-62
2021/05/27 02:05:14;;;;;;;1.40;1.40;;;;;;;8.56;94.23;96805.53;5112845;28;20217;-62
2021/05/27 02:07:41;;;;;;;1.53;1.50;;;;;;;8.63;93.56;96799.25;5112686;28;20203;-63
2021/05/27 02:10:07;;;;;;;1.33;1.30;;;;;;;8.51;94.37;96798.31;5112599;28;20168;-62
2021/05/27 02:12:33;;;;;;;1.43;1.40;;;;;;;8.58;94.45;96800.91;5111762;28;20696;-62
2021/05/27 02:14:58;;;;;;;1.60;1.50;;;;;;;8.69;93.67;96808.81;5113047;28;20175;-62
2021/05/27 02:17:24;;;;;;;1.30;1.30;;;;;;;8.58;94.30;96811.34;5111916;28;20226;-62
2021/05/27 02:19:49;;;;;;;2.03;1.83;;;;;;;8.59;94.68;96808.50;5112744;28;20171;-62
2021/05/27 02:22:21;;;;;;;1.33;1.33;;;;;;;8.57;94.43;96802.69;5112365;28;20652;-62
2021/05/27 02:24:47;;;;;;;1.40;1.40;;;;;;;8.47;95.34;96807.56;5112921;28;20182;-62
2021/05/27 02:27:12;;;;;;;1.40;1.30;;;;;;;8.56;95.21;96816.78;5112621;28;20558;-62
2021/05/27 02:29:38;;;;;;;1.30;1.30;;;;;;;8.66;94.08;96809.25;5093233;28;20210;-61
2021/05/27 02:32:04;;;;;;;1.43;1.43;;;;;;;8.54;94.30;96816.16;5112256;28;20168;-62
2021/05/27 02:34:29;;;;;;;1.63;1.43;;;;;;;8.58;94.80;96806.88;5111956;28;20199;-62
2021/05/27 02:36:54;;;;;;;1.67;1.57;;;;;;;8.52;94.59;96817.41;5112399;28;20198;-66
2021/05/27 02:39:20;;;;;;;1.67;1.57;;;;;;;8.44;95.70;96815.84;5111613;28;20188;-62
2021/05/27 02:41:46;;;;;;;1.50;1.40;;;;;;;8.51;95.19;96813.19;5095708;28;20274;-62
2021/05/27 02:44:11;;;;;;;2.13;1.80;;;;;;;8.40;96.21;96816.50;5112219;28;20673;-62
2021/05/27 02:46:37;;;;;;;1.73;1.63;;;;;;;8.42;96.24;96822.28;5111318;28;20200;-60
2021/05/27 02:49:03;;;;;;;1.50;1.50;;;;;;;8.47;95.90;96825.09;5111987;28;20229;-61
2021/05/27 02:51:28;;;;;;;6.77;1.50;;;;;;;8.50;95.94;96822.84;5111175;28;20206;-62
2021/05/27 02:53:54;;;;;;;1.60;1.50;;;;;;;8.43;96.30;96829.13;5111669;28;20212;-62
2021/05/27 02:56:19;;;;;;;1.50;1.50;;;;;;;8.57;95.66;96821.00;5110487;28;20199;-61
2021/05/27 02:58:45;;;;;;;1.30;1.30;;;;;;;8.63;95.06;96821.94;5095671;28;20236;-62
2021/05/27 03:01:11;;;;;;;1.30;1.30;;;;;;;8.60;94.89;96828.38;5091405;28;20192;-62
2021/05/27 03:03:36;;;;;;;1.37;1.37;;;;;;;8.63;94.78;96832.41;5090739;28;20512;-62
2021/05/27 03:06:03;;;;;;;1.60;1.50;;;;;;;8.57;95.36;96826.22;5091695;28;20208;-62
2021/05/27 03:08:28;;;;;;;2.63;1.30;;;;;;;8.60;94.72;96828.38;5090601;28;20212;-61
2021/05/27 03:10:54;;;;;;;1.30;1.30;;;;;;;8.69;94.14;96827.09;5091187;28;20200;-60
2021/05/27 03:13:20;;;;;;;1.40;1.30;;;;;;;8.63;94.99;96827.97;5090301;28;20268;-67
2021/05/27 03:15:46;;;;;;;1.37;1.37;;;;;;;8.63;94.94;96820.13;5091283;28;20226;-62
2021/05/27 03:18:11;;;;;;;1.40;1.40;;;;;;;8.52;95.66;96823.44;5091517;28;20197;-62
2021/05/27 03:20:37;;;;;;;1.53;1.53;;;;;;;8.56;96.05;96822.00;5090226;28;20625;-61
2021/05/27 03:23:04;;;;;;;1.50;1.40;;;;;;;8.62;94.87;96821.16;5090998;28;20217;-62
2021/05/27 03:25:30;;;;;;;1.30;1.30;;;;;;;8.60;95.90;96814.53;5080006;28;20176;-62
2021/05/27 03:27:55;;;;;;;1.47;1.47;;;;;;;8.57;95.76;96817.56;5091134;28;20196;-62
2021/05/27 03:30:21;;;;;;;1.27;1.27;;;;;;;8.44;96.57;96813.25;5090493;28;20671;-62
2021/05/27 03:32:47;;;;;;;1.30;1.30;;;;;;;8.44;96.49;96810.63;5091262;28;20165;-64
2021/05/27 03:35:13;;;;;;;1.40;1.40;;;;;;;8.45;96.10;96811.44;5091697;28;20171;-62
2021/05/27 03:37:39;;;;;;;1.40;1.30;;;;;;;8.39;96.47;96810.47;5090057;28;20384;-62
2021/05/27 03:40:16;;;;;;;1.37;1.37;;;;;;;8.43;96.85;96795.97;5091375;28;20183;-63
2021/05/27 03:42:46;;;;;;;1.67;1.47;;;;;;;8.43;96.80;96803.81;5090422;28;20196;-66
2021/05/27 03:45:14;;;;;;;1.40;1.40;;;;;;;8.49;96.98;96802.94;5091003;28;20267;-64
2021/05/27 03:47:41;;;;;;;1.33;1.30;;;;;;;8.58;95.79;96811.34;5090208;28;20208;-64
2021/05/27 03:50:10;;;;;;;1.30;1.30;;;;;;;8.72;95.47;96813.63;5090773;28;20184;-62
2021/05/27 03:52:37;;;;;;;1.60;1.47;;;;;;;8.85;94.88;96812.72;5089899;28;20173;-64
2021/05/27 03:55:05;;;;;;;1.10;1.10;;;;;;;9.05;93.82;96805.47;5090985;28;20241;-62
2021/05/27 03:57:31;;;;;;;1.23;1.23;;;;;;;9.25;92.99;96807.88;5089802;28;20232;-63
2021/05/27 04:02:45;;;;;;;1.30;1.20;;;;;;;9.76;89.50;96806.69;5110335;28;20385;-63
2021/05/27 04:07:56;;;;;;;1.90;1.00;;;;;;;10.07;86.94;96808.31;5115150;28;20245;-63
2021/05/27 04:10:23;;;;;;;1.40;1.33;;;;;;;10.27;86.30;96801.81;5113532;28;20176;-65
2021/05/27 04:12:50;;;;;;;1.57;1.10;;;;;;;10.40;85.00;96803.44;5115101;28;20171;-63
2021/05/27 04:15:27;;;;;;;1.27;1.10;;;;;;;10.57;84.15;96803.59;5115450;28;20168;-64
2021/05/27 04:17:59;;;;;;;1.10;1.10;;;;;;;10.71;83.06;96804.97;5115024;28;20204;-63
2021/05/27 04:20:39;;;;;;;1.00;1.00;;;;;;;10.86;82.57;96801.91;5113986;28;20176;-63
2021/05/27 04:23:09;;;;;;;1.47;1.20;;;;;;;10.79;82.24;96809.88;5114931;28;20175;-62
2021/05/27 04:25:35;;;;;;;1.20;1.20;;;;;;;10.54;83.80;96810.06;5114003;28;20659;-63
2021/05/27 04:28:02;;;;;;;1.10;1.10;;;;;;;10.52;84.06;96814.75;5114732;28;20196;-64
2021/05/27 04:30:29;;;;;;;1.20;1.20;;;;;;;10.61;83.21;96810.78;5114120;28;20595;-61
2021/05/27 04:33:07;;;;;;;1.10;0.90;;;;;;;10.70;82.49;96817.25;5114389;28;20176;-63
2021/05/27 04:35:35;;;;;;;1.20;1.20;;;;;;;10.64;82.96;96817.41;5113628;28;20271;-63
2021/05/27 04:38:10;;;;;;;1.37;1.37;;;;;;;10.58;82.90;96823.53;5114855;28;20215;-65
2021/05/27 04:40:37;;;;;;;1.37;1.20;;;;;;;10.34;84.31;96820.84;5113485;28;20175;-62
2021/05/27 04:43:03;;;;;;;4.10;1.40;;;;;;;10.54;83.17;96820.53;5114467;28;20520;-62
2021/05/27 04:45:29;;;;;;;1.10;1.10;;;;;;;10.55;83.50;96823.97;5112998;28;20210;-63
2021/05/27 04:47:55;;;;;;;1.53;1.43;;;;;;;10.47;84.07;96822.50;5113747;28;20661;-63
2021/05/27 04:50:21;;;;;;;1.50;1.40;;;;;;;10.75;83.01;96827.91;5113245;28;20192;-64
2021/05/27 04:52:48;;;;;;;1.33;1.33;;;;;;;10.95;82.53;96824.94;5114431;28;20164;-62
2021/05/27 04:55:15;;;;;;;1.30;1.30;;;;;;;11.12;80.87;96836.34;5113904;28;20188;-62
2021/05/27 04:57:41;;;;;;;1.10;1.10;;;;;;;11.39;80.45;96844.53;5110050;28;20236;-64
2021/05/27 05:00:13;;;;;;;1.10;1.10;;;;;;;11.77;78.21;96851.13;5114021;28;20179;-66
2021/05/27 05:02:39;;;;;;;1.33;1.33;;;;;;;12.01;76.96;96856.09;5112707;28;20215;-62
2021/05/27 05:05:07;;;;;;;1.33;1.27;;;;;;;12.23;75.00;96856.25;5113897;28;20172;-62
2021/05/27 05:07:34;;;;;;;1.43;1.13;;;;;;;12.27;75.20;96853.94;5112844;28;20257;-61
2021/05/27 05:09:59;;;;;;;1.20;1.10;;;;;;;12.68;73.57;96858.06;5113501;28;20178;-62
2021/05/27 05:12:25;;;;;;;1.20;1.10;;;;;;;12.80;72.16;96854.34;5112697;28;20263;-64
2021/05/27 05:14:50;;;;;;;0.77;0.77;;;;;;;12.80;71.47;96848.28;5113254;28;20219;-62
2021/05/27 05:17:16;;;;;;;1.27;1.10;;;;;;;12.91;70.46;96863.19;5112708;28;20196;-62
2021/05/27 05:19:42;;;;;;;0.80;0.80;;;;;;;13.05;70.28;96867.09;5112865;28;20200;-62
2021/05/27 05:22:07;;;;;;;1.00;0.93;;;;;;;13.04;70.99;96869.97;5113746;28;20219;-66
2021/05/27 05:24:33;;;;;;;0.80;0.80;;;;;;;12.83;72.41;96867.00;5111378;28;20914;-65
2021/05/27 05:26:58;;;;;;;0.93;0.90;;;;;;;13.16;71.66;96873.34;5113418;28;20203;-65
2021/05/27 05:29:24;;;;;;;0.87;0.87;;;;;;;13.26;69.87;96870.88;5112602;28;20179;-65
2021/05/27 05:31:49;;;;;;;0.93;0.93;;;;;;;13.60;68.33;96875.03;5113444;28;20224;-64
2021/05/27 05:34:15;;;;;;;0.80;0.80;;;;;;;13.64;68.23;96878.00;5112492;28;20176;-63
2021/05/27 05:36:41;;;;;;;1.20;1.20;;;;;;;14.08;66.78;96887.50;5112430;28;20368;-66
2021/05/27 05:39:06;;;;;;;0.90;0.90;;;;;;;13.84;65.78;96893.25;5113026;28;20217;-64
2021/05/27 05:41:32;;;;;;;1.00;1.00;;;;;;;13.57;66.26;96893.97;5112076;28;20199;-63
2021/05/27 05:43:59;;;;;;;1.13;1.10;;;;;;;12.75;69.62;96898.19;5112896;28;20172;-64
2021/05/27 05:46:25;;;;;;;0.93;0.93;;;;;;;12.78;69.02;96895.84;5111707;28;20226;-64
2021/05/27 05:48:51;;;;;;;0.93;0.93;;;;;;;12.71;69.37;96895.22;5113061;28;20659;-62
2021/05/27 05:51:16;;;;;;;0.87;0.87;;;;;;;12.41;69.44;96894.69;5094037;28;20172;-62
2021/05/27 05:53:42;;;;;;;1.00;0.90;;;;;;;12.41;69.84;96892.84;5112023;28;20187;-63
2021/05/27 05:56:08;;;;;;;2.17;1.10;;;;;;;12.26;69.65;96887.28;5112720;28;20196;-66
2021/05/27 05:58:33;;;;;;;0.90;0.90;;;;;;;12.28;69.94;96893.13;5105309;28;20246;-64
2021/05/27 06:00:59;;;;;;;1.63;1.00;;;;;;;12.48;68.79;96890.09;5089867;28;20200;-62
2021/05/27 06:03:25;;;;;;;0.93;0.80;;;;;;;12.67;68.56;96891.47;5109087;28;20659;-64
2021/05/27 06:05:50;;;;;;;1.10;0.90;;;;;;;12.77;67.24;96893.47;5109022;28;20201;-66
2021/05/27 06:08:16;;;;;;;3.97;1.87;;;;;;;13.00;65.80;96885.44;5109608;28;20295;-65
2021/05/27 06:10:42;;;;;;;0.77;0.77;;;;;;;13.06;65.34;96887.09;5094472;28;20172;-66
2021/05/27 06:13:07;;;;;;;1.23;1.00;;;;;;;13.40;64.16;96895.00;5104409;28;20638;-64
2021/05/27 06:15:33;;;;;;;1.00;0.83;;;;;;;13.20;64.24;96895.53;5102332;28;20171;-64
2021/05/27 06:18:00;;;;;;;1.30;0.93;;;;;;;13.56;62.84;96896.81;5103875;28;20231;-64
2021/05/27 06:20:27;;;;;;;0.80;0.80;;;;;;;13.67;62.05;96891.47;5095048;28;20625;-64
2021/05/27 06:22:53;;;;;;;0.70;0.70;;;;;;;13.76;60.88;96899.75;5110189;28;20196;-64
2021/05/27 06:25:21;;;;;;;0.87;0.87;;;;;;;14.02;61.54;96900.88;5095421;28;20168;-65
2021/05/27 06:27:46;;;;;;;0.70;0.70;;;;;;;14.15;60.17;96914.44;5096951;28;20208;-64
2021/05/27 06:30:12;;;;;;;1.20;0.90;;;;;;;14.22;57.54;96908.19;5095653;28;20233;-65
2021/05/27 06:32:38;;;;;;;0.80;0.80;;;;;;;13.94;57.05;96909.19;5095617;28;20559;-64
2021/05/27 06:35:09;;;;;;;0.70;0.70;;;;;;;14.20;56.50;96910.31;5106701;28;20175;-64
2021/05/27 06:37:38;;;;;;;0.60;0.60;;;;;;;14.29;56.07;96909.63;5095036;28;20201;-64
2021/05/27 06:40:10;;;;;;;0.67;0.67;;;;;;;14.05;56.66;96914.34;5094294;28;20189;-64
2021/05/27 06:42:35;;;;;;;1.23;0.80;;;;;;;13.93;56.08;96916.28;5103190;28;20195;-64
2021/05/27 06:45:03;;;;;;;1.10;1.00;;;;;;;14.30;56.31;96916.50;5094661;28;20188;-64
2021/05/27 06:47:28;;;;;;;0.90;0.90;;;;;;;14.44;56.56;96920.34;5102703;28;20243;-64
2021/05/27 06:49:54;;;;;;;0.60;0.60;;;;;;;14.89;55.38;96919.22;5105049;28;20224;-64
2021/05/27 06:52:19;;;;;;;0.80;0.80;;;;;;;14.59;55.27;96916.31;5103134;28;20176;-64
2021/05/27 06:54:45;;;;;;;0.60;0.60;;;;;;;14.51;56.17;96914.88;5092161;28;20623;-64
2021/05/27 06:57:10;;;;;;;0.70;0.70;;;;;;;14.23;56.59;96923.78;5093594;28;20211;-65
2021/05/27 06:59:36;;;;;;;1.20;0.70;;;;;;;14.53;56.04;96923.38;5103542;28;20187;-63
2021/05/27 07:02:01;;;;;;;0.90;0.90;;;;;;;14.61;55.42;96915.00;5094740;28;20196;-63
2021/05/27 07:04:27;;;;;;;0.77;0.77;;;;;;;14.72;55.21;96914.03;5109593;28;20174;-65
2021/05/27 07:06:52;;;;;;;0.73;0.70;;;;;;;14.86;55.46;96915.25;5104800;28;20668;-64
2021/05/27 07:09:19;;;;;;;0.70;0.70;;;;;;;15.13;53.70;96920.50;5108586;28;20224;-64
2021/05/27 07:11:46;;;;;;;0.97;0.70;;;;;;;14.97;52.57;96916.13;5107118;28;20184;-63
2021/05/27 07:14:11;;;;;;;2.67;0.73;;;;;;;14.84;52.22;96922.63;5105003;28;20215;-63
2021/05/27 07:16:37;;;;;;;0.70;0.70;;;;;;;14.61;52.37;96924.75;5106846;28;20220;-63
2021/05/27 07:19:02;;;;;;;2.97;0.80;;;;;;;14.28;54.46;96921.19;5106795;28;20230;-63
2021/05/27 07:21:28;;;;;;;2.07;0.87;;;;;;;14.54;55.27;96920.47;5103019;28;20207;-64
2021/05/27 07:23:54;;;;;;;0.70;0.70;;;;;;;14.78;56.13;96922.81;5100505;28;20212;-63
2021/05/27 07:26:19;;;;;;;0.80;0.80;;;;;;;14.83;56.04;96920.22;5097292;28;20669;-63
2021/05/27 07:28:45;;;;;;;2.43;1.93;;;;;;;15.09;54.54;96914.13;5100203;28;20187;-64
2021/05/27 07:31:11;;;;;;;0.77;0.77;;;;;;;14.86;54.69;96919.72;5110133;28;20195;-64
2021/05/27 07:33:37;;;;;;;0.80;0.80;;;;;;;14.70;54.78;96920.63;5110663;28;20175;-64
2021/05/27 07:36:04;;;;;;;1.07;0.80;;;;;;;14.39;54.89;96922.13;5109476;28;20284;-65
2021/05/27 07:38:30;;;;;;;0.70;0.70;;;;;;;14.09;55.10;96919.94;5108932;28;20188;-65
2021/05/27 07:40:56;;;;;;;0.83;0.70;;;;;;;13.89;55.13;96917.81;5105539;28;20196;-64
2021/05/27 07:43:28;;;;;;;1.23;1.03;;;;;;;13.71;55.50;96929.44;5109563;28;20216;-65
2021/05/27 07:45:53;;;;;;;0.70;0.70;;;;;;;13.76;55.37;96928.72;5109282;28;20671;-64
2021/05/27 07:48:19;;;;;;;0.90;0.90;;;;;;;13.97;55.34;96924.53;5096630;28;20185;-65
2021/05/27 07:50:44;;;;;;;1.30;0.80;;;;;;;14.30;53.32;96924.41;5105262;28;20712;-65
2021/05/27 07:53:15;;;;;;;0.80;0.80;;;;;;;14.78;53.74;96928.09;5108706;28;20214;-64
2021/05/27 07:55:41;;;;;;;1.60;1.00;;;;;;;15.12;52.91;96928.66;5090484;28;20179;-65
2021/05/27 07:58:06;;;;;;;0.77;0.70;;;;;;;15.29;52.51;96922.19;5099158;28;20235;-65
2021/05/27 08:00:32;;;;;;;0.77;0.77;;;;;;;15.19;51.85;96929.25;5093273;28;20179;-64
2021/05/27 08:02:57;;;;;;;1.17;0.67;;;;;;;14.71;51.48;96925.63;5075957;28;20906;-64
2021/05/27 08:05:23;;;;;;;0.67;0.67;;;;;;;14.61;50.74;96922.91;5076079;28;20184;-65
2021/05/27 08:07:49;;;;;;;1.77;0.80;;;;;;;15.16;50.90;96921.81;5092318;28;20668;-64
2021/05/27 08:10:15;;;;;;;0.77;0.77;;;;;;;15.35;49.15;96930.97;5093890;28;20272;-64
2021/05/27 08:12:42;;;;;;;1.90;0.70;;;;;;;15.61;48.81;96935.41;5093548;28;20191;-65
2021/05/27 08:15:08;;;;;;;0.70;0.70;;;;;;;15.88;48.94;96932.69;5091012;28;20727;-65
2021/05/27 08:17:34;;;;;;;0.90;0.90;;;;;;;15.65;49.30;96936.50;5093552;28;20204;-66
2021/05/27 08:20:00;;;;;;;1.40;0.80;;;;;;;15.75;48.85;96941.03;5094517;28;20601;-65
2021/05/27 08:22:27;;;;;;;2.15;1.00;;;;;;;15.81;47.83;96937.38;5093546;28;20192;-65
2021/05/27 08:24:54;;;;;;;0.70;0.70;;;;;;;15.97;47.65;96938.25;5093330;28;20172;-65
2021/05/27 08:27:20;;;;;;;0.73;0.73;;;;;;;15.54;47.80;96934.03;5093543;28;20245;-65
2021/05/27 08:29:46;;;;;;;0.88;0.85;;;;;;;15.72;47.04;96931.75;5092809;28;20255;-65
2021/05/27 08:32:12;;;;;;;0.68;0.68;;;;;;;15.78;48.20;96935.22;5092541;28;20167;-65
2021/05/27 08:34:37;;;;;;;0.88;0.88;;;;;;;15.98;48.18;96932.72;5090879;28;20208;-63
2021/05/27 08:37:03;;;;;;;1.02;1.00;;;;;;;15.90;47.67;96930.56;5093203;28;20204;-63
2021/05/27 08:39:28;;;;;;;1.77;0.80;;;;;;;15.31;48.34;96925.41;5092556;28;20292;-64
2021/05/27 08:41:54;;;;;;;0.67;0.67;;;;;;;15.29;49.16;96929.31;5093053;28;20306;-64
2021/05/27 08:44:19;;;;;;;0.70;0.70;;;;;;;15.40;48.46;96934.44;5093481;28;20259;-64
2021/05/27 08:46:48;;;;;;;0.80;0.80;;;;;;;15.40;48.60;96928.34;5092497;28;20204;-64
2021/05/27 08:49:13;;;;;;;0.90;0.90;;;;;;;15.10;48.61;96928.13;5092820;28;20212;-64
2021/05/27 08:51:39;;;;;;;1.20;1.10;;;;;;;15.10;49.57;96936.06;5092469;28;20215;-64
2021/05/27 08:54:05;;;;;;;0.80;0.80;;;;;;;14.83;49.87;96933.41;5093240;28;20671;-64
2021/05/27 08:56:32;;;;;;;1.57;1.00;;;;;;;14.85;49.35;96931.31;5092435;28;20295;-64
2021/05/27 08:58:58;;;;;;;0.80;0.80;;;;;;;14.84;49.36;96935.00;5105374;28;20284;-64
2021/05/27 09:01:30;;;;;;;0.83;0.80;;;;;;;15.27;48.30;96928.78;5099591;28;20208;-65
2021/05/27 09:03:56;;;;;;;1.97;0.80;;;;;;;15.77;46.58;96933.66;5110940;28;20199;-64
2021/05/27 09:06:23;;;;;;;0.60;0.60;;;;;;;15.14;48.08;96932.66;5098558;28;20625;-64
2021/05/27 09:09:01;;;;;;;0.90;0.90;;;;;;;15.05;47.40;96934.13;5103049;28;20197;-64
2021/05/27 09:11:35;;;;;;;2.23;0.83;;;;;;;14.98;47.47;96928.28;5095056;28;20165;-65
2021/05/27 09:14:01;;;;;;;0.77;0.77;;;;;;;15.39;46.99;96934.69;5104026;28;20174;-64
2021/05/27 09:16:29;;;;;;;0.87;0.87;;;;;;;15.74;46.69;96934.16;5101941;28;20558;-65
2021/05/27 09:18:55;;;;;;;0.80;0.80;;;;;;;16.09;46.63;96937.00;5102590;28;20620;-64
2021/05/27 09:21:39;;;;;;;0.65;0.65;;;;;;;16.49;45.72;96940.88;5100194;28;20249;-65
2021/05/27 09:24:05;;;;;;;0.80;0.80;;;;;;;16.35;43.47;96943.19;5099995;28;20659;-65
2021/05/27 09:26:30;;;;;;;0.98;0.70;;;;;;;16.48;45.07;96942.72;5099818;28;20205;-65
2021/05/27 09:29:10;;;;;;;0.60;0.60;;;;;;;16.86;44.14;96943.34;5103999;28;20188;-65
2021/05/27 09:31:37;;;;;;;1.35;0.73;;;;;;;16.76;43.74;96952.09;5106249;28;20198;-64
2021/05/27 09:34:04;;;;;;;1.10;0.60;;;;;;;16.42;44.45;96938.47;5106720;28;20638;-64
2021/05/27 09:36:31;;;;;;;0.73;0.73;;;;;;;16.35;44.69;96945.84;5102860;28;20197;-64
2021/05/27 09:39:02;;;;;;;1.17;0.77;;;;;;;16.09;44.63;96947.59;5104153;28;20177;-64
2021/05/27 09:41:35;;;;;;;0.65;0.65;;;;;;;16.04;45.22;96954.69;5106484;28;20208;-64
2021/05/27 09:44:00;;;;;;;0.75;0.75;;;;;;;15.75;45.44;96949.78;5106977;28;20167;-64
2021/05/27 09:46:56;;;;;;;0.60;0.60;;;;;;;15.81;45.61;96947.97;5101400;28;20696;-64
2021/05/27 09:49:26;;;;;;;0.82;0.80;;;;;;;15.66;46.64;96948.63;5092890;28;20193;-64
2021/05/27 09:51:56;;;;;;;0.90;0.90;;;;;;;15.53;46.84;96951.75;5098953;28;20181;-64
2021/05/27 09:54:23;;;;;;;1.47;0.77;;;;;;;15.32;47.98;96947.31;5101850;28;20259;-64
2021/05/27 09:56:49;;;;;;;0.77;0.77;;;;;;;15.32;46.43;96950.75;5099279;28;20707;-68
2021/05/27 09:59:16;;;;;;;1.00;0.77;;;;;;;15.12;46.76;96957.69;5101570;28;20292;-64
2021/05/27 10:02:13;;;;;;;0.70;0.70;;;;;;;14.90;47.39;96955.94;5104187;28;20731;-64
2021/05/27 10:04:58;;;;;;;0.70;0.70;;;;;;;14.77;48.56;96966.06;5095860;28;20586;-64
2021/05/27 10:07:40;;;;;;;0.97;0.90;;;;;;;14.96;48.66;96968.13;5078453;28;20606;-64
2021/05/27 10:10:08;;;;;;;0.80;0.80;;;;;;;15.06;48.61;96966.63;5097635;28;20251;-64
2021/05/27 10:12:40;;;;;;;1.60;0.90;;;;;;;15.04;48.67;96963.44;5100408;28;20171;-64
2021/05/27 10:15:08;;;;;;;0.80;0.80;;;;;;;15.33;47.24;96965.53;5098584;28;20168;-65
2021/05/27 10:17:36;;;;;;;0.73;0.70;;;;;;;15.72;46.80;96966.13;5097292;28;20201;-64
2021/05/27 10:20:05;;;;;;;0.60;0.60;;;;;;;16.13;46.10;96961.06;5097995;28;20173;-64
2021/05/27 10:22:30;;;;;;;1.95;0.70;;;;;;;16.20;45.46;96954.50;5101330;28;20202;-64
2021/05/27 10:24:58;;;;;;;1.60;1.00;;;;;;;16.06;45.46;96958.66;5096880;28;20176;-64
2021/05/27 10:27:23;;;;;;;0.75;0.75;;;;;;;15.81;45.83;96955.88;5095258;28;20203;-64
2021/05/27 10:29:50;;;;;;;1.85;0.80;;;;;;;15.53;46.39;96956.22;5106592;28;20160;-64
2021/05/27 10:32:17;;;;;;;0.80;0.80;;;;;;;15.17;47.09;96963.03;5106818;28;20676;-64
2021/05/27 10:34:46;;;;;;;0.63;0.63;;;;;;;15.24;47.62;96961.78;5109410;28;20656;-64
2021/05/27 10:37:13;;;;;;;0.70;0.70;;;;;;;15.04;48.07;96961.59;5095293;28;20208;-64
2021/05/27 10:39:39;;;;;;;1.25;0.93;;;;;;;15.19;48.11;96960.94;5095858;28;20519;-64
2021/05/27 10:42:06;;;;;;;0.73;0.60;;;;;;;15.13;48.12;96964.56;5101451;28;20204;-65
2021/05/27 10:44:32;;;;;;;0.63;0.63;;;;;;;14.95;48.62;96960.44;5106674;28;20305;-65
2021/05/27 10:46:57;;;;;;;0.80;0.80;;;;;;;14.74;49.10;96971.84;5099219;28;20279;-65
2021/05/27 10:49:38;;;;;;;0.87;0.80;;;;;;;14.59;49.32;96963.78;5104537;28;20303;-64
2021/05/27 10:52:25;;;;;;;0.60;0.60;;;;;;;14.38;50.24;96965.38;5097614;28;20173;-64
2021/05/27 10:54:51;;;;;;;0.80;0.80;;;;;;;14.04;51.73;96967.31;5092166;28;20176;-64
2021/05/27 10:57:36;;;;;;;1.67;0.83;;;;;;;13.99;52.39;96964.59;5105702;28;20683;-65
2021/05/27 11:00:01;;;;;;;1.33;0.80;;;;;;;14.07;52.56;96957.06;5111320;28;20175;-64
2021/05/27 11:02:29;;;;;;;0.97;0.97;;;;;;;14.38;52.31;96973.28;5111174;28;20192;-67
2021/05/27 11:05:21;;;;;;;0.70;0.70;;;;;;;14.74;51.74;96969.22;5092623;28;20593;-65
2021/05/27 11:08:18;;;;;;;1.00;0.80;;;;;;;14.86;51.07;96962.75;5110860;28;20250;-67
2021/05/27 11:10:44;;;;;;;1.43;1.00;;;;;;;14.98;50.98;96965.25;5110775;28;20168;-65
2021/05/27 11:13:09;;;;;;;1.00;0.90;;;;;;;15.14;50.56;96961.69;5111116;28;20514;-65
2021/05/27 11:15:35;;;;;;;1.33;0.80;;;;;;;15.06;50.50;96963.97;5109760;28;20224;-65
2021/05/27 11:18:06;;;;;;;1.27;1.17;;;;;;;15.27;49.82;96963.09;5111289;28;20248;-65
2021/05/27 11:20:34;;;;;;;0.90;0.90;;;;;;;15.56;49.84;96953.84;5092691;28;20176;-63
2021/05/27 11:23:12;;;;;;;0.93;0.80;;;;;;;15.54;49.44;96958.63;5110763;28;20212;-64
2021/05/27 11:25:38;;;;;;;0.70;0.70;;;;;;;15.82;48.19;96957.47;5108661;28;20263;-64
2021/05/27 11:28:11;;;;;;;0.80;0.80;;;;;;;15.69;48.14;96956.06;5107301;28;20200;-64
2021/05/27 11:30:40;;;;;;;0.68;0.68;;;;;;;16.04;48.08;96957.34;5105243;28;20168;-65
2021/05/27 11:33:11;;;;;;;0.93;0.77;;;;;;;16.43;47.17;96955.94;5097876;28;20636;-63
2021/05/27 11:35:40;;;;;;;0.80;0.80;;;;;;;16.48;46.71;96955.94;5110041;28;20164;-62
2021/05/27 11:38:11;;;;;;;1.08;0.98;;;;;;;16.66;46.26;96948.63;5111078;28;20575;-62
2021/05/27 11:40:58;;;;;;;0.80;0.80;;;;;;;16.60;46.26;96955.75;5105283;28;20168;-62
2021/05/27 11:43:30;;;;;;;0.93;0.93;;;;;;;16.68;45.72;96949.13;5105106;28;20343;-65